sensor_id;sensor_type;location;lat;lon;timestamp;pressure;altitude;pressure_sealevel;temperature;humidity
69153;BME280;56261;51.580;4.578;2023-08-30T00:01:29;101003.06;;;12.27;100.00
69153;BME280;56261;51.580;4.578;2023-08-30T00:03:55;101001.56;;;12.24;100.00
69153;BME280;56261;51.580;4.578;2023-08-30T00:06:20;100995.97;;;12.11;100.00
69153;BME280;56261;51.580;4.578;2023-08-30T00:08:45;101006.66;;;12.11;100.00
69153;BME280;56261;51.580;4.578;2023-08-30T00:11:11;101002.63;;;12.15;100.00
69153;BME280;56261;51.580;4.578;2023-08-30T00:13:36;100999.19;;;12.07;100.00
69153;BME280;56261;51.580;4.578;2023-08-30T00:16:02;100990.50;;;12.04;100.00
69153;BME280;56261;51.580;4.578;2023-08-30T00:18:28;100989.53;;;11.97;100.00
69153;BME280;56261;51.580;4.578;2023-08-30T00:20:54;100981.56;;;11.89;100.00
69153;BME280;56261;51.580;4.578;2023-08-30T00:23:20;100985.53;;;11.93;100.00
69153;BME280;56261;51.580;4.578;2023-08-30T00:25:45;100975.34;;;11.97;100.00
69153;BME280;56261;51.580;4.578;2023-08-30T00:28:11;100975.34;;;11.97;100.00
69153;BME280;56261;51.580;4.578;2023-08-30T00:30:36;100977.00;;;11.98;100.00
69153;BME280;56261;51.580;4.578;2023-08-30T00:33:01;100974.50;;;11.96;100.00
69153;BME280;56261;51.580;4.578;2023-08-30T00:35:27;100973.63;;;12.04;100.00
69153;BME280;56261;51.580;4.578;2023-08-30T00:37:52;100973.34;;;11.99;100.00
69153;BME280;56261;51.580;4.578;2023-08-30T00:40:23;100976.34;;;11.96;100.00
69153;BME280;56261;51.580;4.578;2023-08-30T00:42:48;100970.16;;;11.87;100.00
69153;BME280;56261;51.580;4.578;2023-08-30T00:45:13;100979.03;;;11.88;100.00
69153;BME280;56261;51.580;4.578;2023-08-30T00:47:39;100971.03;;;11.88;100.00
69153;BME280;56261;51.580;4.578;2023-08-30T00:50:05;100974.56;;;11.88;100.00
69153;BME280;56261;51.580;4.578;2023-08-30T00:52:30;100967.19;;;11.82;100.00
69153;BME280;56261;51.580;4.578;2023-08-30T00:54:56;100959.72;;;11.77;100.00
69153;BME280;56261;51.580;4.578;2023-08-30T00:57:21;100958.69;;;11.78;100.00
69153;BME280;56261;51.580;4.578;2023-08-30T00:59:47;100957.84;;;11.78;100.00
69153;BME280;56261;51.580;4.578;2023-08-30T01:02:14;100955.03;;;11.79;100.00
69153;BME280;56261;51.580;4.578;2023-08-30T01:04:40;100955.56;;;11.75;100.00
69153;BME280;56261;51.580;4.578;2023-08-30T01:07:05;100949.84;;;11.78;100.00
69153;BME280;56261;51.580;4.578;2023-08-30T01:09:30;100948.31;;;11.83;100.00
69153;BME280;56261;51.580;4.578;2023-08-30T01:17:16;100941.69;;;11.71;100.00
69153;BME280;56261;51.580;4.578;2023-08-30T01:19:49;100948.34;;;11.75;100.00
69153;BME280;56261;51.580;4.578;2023-08-30T01:25:43;100946.75;;;11.66;100.00
69153;BME280;56261;51.580;4.578;2023-08-30T01:28:11;100947.41;;;11.68;100.00
69153;BME280;56261;51.580;4.578;2023-08-30T01:30:40;100937.22;;;11.63;100.00
69153;BME280;56261;51.580;4.578;2023-08-30T01:33:07;100939.91;;;11.63;100.00
69153;BME280;56261;51.580;4.578;2023-08-30T01:35:34;100933.03;;;11.69;100.00
69153;BME280;56261;51.580;4.578;2023-08-30T01:38:03;100934.88;;;11.69;100.00
69153;BME280;56261;51.580;4.578;2023-08-30T01:40:33;100938.59;;;11.59;100.00
69153;BME280;56261;51.580;4.578;2023-08-30T01:43:03;100940.44;;;11.59;100.00
69153;BME280;56261;51.580;4.578;2023-08-30T01:45:32;100937.03;;;11.65;100.00
69153;BME280;56261;51.580;4.578;2023-08-30T01:47:58;100935.38;;;11.64;100.00
69153;BME280;56261;51.580;4.578;2023-08-30T01:50:24;100939.91;;;11.63;100.00
69153;BME280;56261;51.580;4.578;2023-08-30T01:52:52;100937.69;;;11.67;100.00
69153;BME280;56261;51.580;4.578;2023-08-30T01:55:18;100926.50;;;11.72;100.00
69153;BME280;56261;51.580;4.578;2023-08-30T01:57:45;100925.53;;;11.64;100.00
69153;BME280;56261;51.580;4.578;2023-08-30T02:00:11;100922.03;;;11.64;100.00
69153;BME280;56261;51.580;4.578;2023-08-30T02:02:37;100912.34;;;11.63;100.00
69153;BME280;56261;51.580;4.578;2023-08-30T02:05:02;100919.34;;;11.64;100.00
69153;BME280;56261;51.580;4.578;2023-08-30T02:10:10;100917.00;;;11.69;100.00
69153;BME280;56261;51.580;4.578;2023-08-30T02:12:46;100921.34;;;11.70;100.00
69153;BME280;56261;51.580;4.578;2023-08-30T02:15:13;100916.69;;;11.64;100.00
69153;BME280;56261;51.580;4.578;2023-08-30T02:17:39;100920.03;;;11.66;100.00
69153;BME280;56261;51.580;4.578;2023-08-30T02:20:05;100921.50;;;11.69;100.00
69153;BME280;56261;51.580;4.578;2023-08-30T02:22:32;100916.13;;;11.77;100.00
69153;BME280;56261;51.580;4.578;2023-08-30T02:24:58;100923.94;;;11.78;100.00
69153;BME280;56261;51.580;4.578;2023-08-30T02:27:24;100924.28;;;11.83;100.00
69153;BME280;56261;51.580;4.578;2023-08-30T02:29:49;100912.94;;;11.81;100.00
69153;BME280;56261;51.580;4.578;2023-08-30T02:32:15;100922.91;;;11.88;100.00
69153;BME280;56261;51.580;4.578;2023-08-30T02:34:47;100916.41;;;11.90;100.00
69153;BME280;56261;51.580;4.578;2023-08-30T02:37:13;100909.38;;;11.89;100.00
69153;BME280;56261;51.580;4.578;2023-08-30T02:39:38;100908.00;;;12.01;100.00
69153;BME280;56261;51.580;4.578;2023-08-30T02:42:04;100908.81;;;12.02;100.00
69153;BME280;56261;51.580;4.578;2023-08-30T02:44:29;100907.88;;;11.95;100.00
69153;BME280;56261;51.580;4.578;2023-08-30T02:46:54;100894.31;;;11.96;100.00
69153;BME280;56261;51.580;4.578;2023-08-30T02:49:20;100885.94;;;11.99;100.00
69153;BME280;56261;51.580;4.578;2023-08-30T02:51:45;100875.78;;;11.95;100.00
69153;BME280;56261;51.580;4.578;2023-08-30T02:54:10;100881.78;;;11.97;100.00
69153;BME280;56261;51.580;4.578;2023-08-30T02:56:38;100874.31;;;11.92;100.00
69153;BME280;56261;51.580;4.578;2023-08-30T02:59:03;100870.44;;;11.95;100.00
69153;BME280;56261;51.580;4.578;2023-08-30T03:01:28;100864.47;;;12.08;100.00
69153;BME280;56261;51.580;4.578;2023-08-30T03:03:54;100869.13;;;12.14;100.00
69153;BME280;56261;51.580;4.578;2023-08-30T03:06:19;100845.66;;;12.24;100.00
69153;BME280;56261;51.580;4.578;2023-08-30T03:08:45;100838.63;;;12.23;100.00
69153;BME280;56261;51.580;4.578;2023-08-30T03:11:13;100848.72;;;12.36;100.00
69153;BME280;56261;51.580;4.578;2023-08-30T03:13:39;100835.16;;;12.37;100.00
69153;BME280;56261;51.580;4.578;2023-08-30T03:16:15;100834.63;;;12.42;100.00
69153;BME280;56261;51.580;4.578;2023-08-30T03:18:41;100830.75;;;12.44;100.00
69153;BME280;56261;51.580;4.578;2023-08-30T03:21:07;100815.41;;;12.38;100.00
69153;BME280;56261;51.580;4.578;2023-08-30T03:23:33;100820.22;;;12.43;100.00
69153;BME280;56261;51.580;4.578;2023-08-30T03:25:59;100806.19;;;12.41;100.00
69153;BME280;56261;51.580;4.578;2023-08-30T03:28:25;100810.81;;;12.47;100.00
69153;BME280;56261;51.580;4.578;2023-08-30T03:30:50;100807.06;;;12.41;100.00
69153;BME280;56261;51.580;4.578;2023-08-30T03:33:16;100807.06;;;12.41;100.00
69153;BME280;56261;51.580;4.578;2023-08-30T03:35:41;100809.25;;;12.38;100.00
69153;BME280;56261;51.580;4.578;2023-08-30T03:38:07;100796.88;;;12.37;100.00
69153;BME280;56261;51.580;4.578;2023-08-30T03:40:32;100802.69;;;12.40;100.00
69153;BME280;56261;51.580;4.578;2023-08-30T03:42:57;100803.78;;;12.31;100.00
69153;BME280;56261;51.580;4.578;2023-08-30T03:45:23;100803.16;;;12.29;100.00
69153;BME280;56261;51.580;4.578;2023-08-30T03:47:48;100798.28;;;12.33;100.00
69153;BME280;56261;51.580;4.578;2023-08-30T03:50:14;100796.41;;;12.33;100.00
69153;BME280;56261;51.580;4.578;2023-08-30T03:52:39;100785.34;;;12.36;100.00
69153;BME280;56261;51.580;4.578;2023-08-30T03:55:05;100786.53;;;12.34;100.00
69153;BME280;56261;51.580;4.578;2023-08-30T03:57:30;100782.88;;;12.35;100.00
69153;BME280;56261;51.580;4.578;2023-08-30T03:59:56;100780.00;;;12.36;100.00
69153;BME280;56261;51.580;4.578;2023-08-30T04:02:21;100784.69;;;12.34;100.00
69153;BME280;56261;51.580;4.578;2023-08-30T04:04:48;100775.84;;;12.34;100.00
69153;BME280;56261;51.580;4.578;2023-08-30T04:07:14;100772.91;;;12.43;100.00
69153;BME280;56261;51.580;4.578;2023-08-30T04:09:39;100771.06;;;12.44;100.00
69153;BME280;56261;51.580;4.578;2023-08-30T04:12:05;100767.56;;;12.58;100.00
69153;BME280;56261;51.580;4.578;2023-08-30T04:14:30;100762.69;;;12.62;100.00
69153;BME280;56261;51.580;4.578;2023-08-30T04:16:56;100760.66;;;12.64;100.00
69153;BME280;56261;51.580;4.578;2023-08-30T04:19:21;100755.75;;;12.67;100.00
69153;BME280;56261;51.580;4.578;2023-08-30T04:21:47;100750.13;;;12.62;100.00
69153;BME280;56261;51.580;4.578;2023-08-30T04:24:12;100755.19;;;12.72;100.00
69153;BME280;56261;51.580;4.578;2023-08-30T04:26:39;100744.94;;;12.76;100.00
69153;BME280;56261;51.580;4.578;2023-08-30T04:29:05;100734.50;;;12.81;100.00
69153;BME280;56261;51.580;4.578;2023-08-30T04:31:30;100738.00;;;12.81;100.00
69153;BME280;56261;51.580;4.578;2023-08-30T04:33:56;100726.28;;;12.82;100.00
69153;BME280;56261;51.580;4.578;2023-08-30T04:36:21;100732.47;;;12.83;100.00
69153;BME280;56261;51.580;4.578;2023-08-30T04:38:47;100730.44;;;12.85;100.00
69153;BME280;56261;51.580;4.578;2023-08-30T04:41:12;100728.50;;;12.94;100.00
69153;BME280;56261;51.580;4.578;2023-08-30T04:43:38;100726.47;;;12.96;100.00
69153;BME280;56261;51.580;4.578;2023-08-30T04:46:03;100733.38;;;12.90;100.00
69153;BME280;56261;51.580;4.578;2023-08-30T04:48:28;100721.19;;;13.02;100.00
69153;BME280;56261;51.580;4.578;2023-08-30T04:51:02;100719.50;;;13.01;100.00
69153;BME280;56261;51.580;4.578;2023-08-30T04:53:30;100714.78;;;13.03;100.00
69153;BME280;56261;51.580;4.578;2023-08-30T04:55:55;100716.25;;;13.06;100.00
69153;BME280;56261;51.580;4.578;2023-08-30T04:58:21;100724.38;;;13.13;100.00
69153;BME280;56261;51.580;4.578;2023-08-30T05:00:47;100716.34;;;13.13;100.00
69153;BME280;56261;51.580;4.578;2023-08-30T05:03:12;100722.78;;;13.18;100.00
69153;BME280;56261;51.580;4.578;2023-08-30T05:05:37;100719.16;;;13.26;100.00
69153;BME280;56261;51.580;4.578;2023-08-30T05:08:03;100722.78;;;13.33;100.00
69153;BME280;56261;51.580;4.578;2023-08-30T05:10:29;100728.28;;;13.46;100.00
69153;BME280;56261;51.580;4.578;2023-08-30T05:12:55;100728.63;;;13.43;100.00
69153;BME280;56261;51.580;4.578;2023-08-30T05:15:20;100741.22;;;13.43;100.00
69153;BME280;56261;51.580;4.578;2023-08-30T05:17:46;100729.91;;;13.47;100.00
69153;BME280;56261;51.580;4.578;2023-08-30T05:20:12;100730.31;;;13.44;100.00
69153;BME280;56261;51.580;4.578;2023-08-30T05:22:37;100738.34;;;13.44;100.00
69153;BME280;56261;51.580;4.578;2023-08-30T05:25:03;100734.88;;;13.50;100.00
69153;BME280;56261;51.580;4.578;2023-08-30T05:27:29;100731.66;;;13.55;100.00
69153;BME280;56261;51.580;4.578;2023-08-30T05:29:54;100718.03;;;13.57;100.00
69153;BME280;56261;51.580;4.578;2023-08-30T05:32:21;100721.06;;;13.47;100.00
69153;BME280;56261;51.580;4.578;2023-08-30T05:34:47;100727.94;;;13.56;100.00
69153;BME280;56261;51.580;4.578;2023-08-30T05:37:12;100714.22;;;13.44;100.00
69153;BME280;56261;51.580;4.578;2023-08-30T05:39:38;100721.88;;;13.47;100.00
69153;BME280;56261;51.580;4.578;2023-08-30T05:42:04;100713.66;;;13.49;100.00
69153;BME280;56261;51.580;4.578;2023-08-30T05:44:29;100709.13;;;13.49;100.00
69153;BME280;56261;51.580;4.578;2023-08-30T05:46:54;100699.81;;;13.45;100.00
69153;BME280;56261;51.580;4.578;2023-08-30T05:49:20;100707.84;;;13.45;100.00
69153;BME280;56261;51.580;4.578;2023-08-30T05:51:45;100710.16;;;13.48;100.00
69153;BME280;56261;51.580;4.578;2023-08-30T05:54:12;100693.75;;;13.37;100.00
69153;BME280;56261;51.580;4.578;2023-08-30T05:56:38;100675.28;;;13.27;100.00
69153;BME280;56261;51.580;4.578;2023-08-30T05:59:03;100679.19;;;13.24;100.00
69153;BME280;56261;51.580;4.578;2023-08-30T06:01:28;100674.19;;;13.21;100.00
69153;BME280;56261;51.580;4.578;2023-08-30T06:03:54;100670.81;;;13.13;100.00
69153;BME280;56261;51.580;4.578;2023-08-30T06:06:19;100666.94;;;13.15;100.00
69153;BME280;56261;51.580;4.578;2023-08-30T06:08:45;100657.16;;;13.07;100.00
69153;BME280;56261;51.580;4.578;2023-08-30T06:11:11;100665.53;;;13.19;100.00
69153;BME280;56261;51.580;4.578;2023-08-30T06:13:36;100656.59;;;13.12;100.00
69153;BME280;56261;51.580;4.578;2023-08-30T06:16:02;100663.34;;;13.08;100.00
69153;BME280;56261;51.580;4.578;2023-08-30T06:18:30;100670.06;;;13.19;100.00
69153;BME280;56261;51.580;4.578;2023-08-30T06:20:56;100664.56;;;13.27;100.00
69153;BME280;56261;51.580;4.578;2023-08-30T06:23:21;100657.53;;;13.26;100.00
69153;BME280;56261;51.580;4.578;2023-08-30T06:25:56;100653.72;;;13.28;100.00
69153;BME280;56261;51.580;4.578;2023-08-30T06:28:22;100660.91;;;13.28;100.00
69153;BME280;56261;51.580;4.578;2023-08-30T06:30:47;100655.72;;;13.26;100.00
69153;BME280;56261;51.580;4.578;2023-08-30T06:33:13;100645.75;;;13.35;100.00
69153;BME280;56261;51.580;4.578;2023-08-30T06:35:38;100650.63;;;13.32;100.00
69153;BME280;56261;51.580;4.578;2023-08-30T06:38:04;100652.19;;;13.26;100.00
69153;BME280;56261;51.580;4.578;2023-08-30T06:40:30;100655.84;;;13.18;100.00
69153;BME280;56261;51.580;4.578;2023-08-30T06:42:55;100649.31;;;13.27;100.00
69153;BME280;56261;51.580;4.578;2023-08-30T06:45:22;100648.06;;;13.23;100.00
69153;BME280;56261;51.580;4.578;2023-08-30T06:47:48;100644.09;;;13.19;100.00
69153;BME280;56261;51.580;4.578;2023-08-30T06:50:14;100645.47;;;13.30;100.00
69153;BME280;56261;51.580;4.578;2023-08-30T06:52:40;100641.97;;;13.29;100.00
69153;BME280;56261;51.580;4.578;2023-08-30T06:55:05;100643.25;;;13.34;100.00
69153;BME280;56261;51.580;4.578;2023-08-30T06:57:31;100636.09;;;13.41;100.00
69153;BME280;56261;51.580;4.578;2023-08-30T06:59:56;100638.69;;;13.34;100.00
69153;BME280;56261;51.580;4.578;2023-08-30T07:02:22;100629.50;;;13.43;100.00
69153;BME280;56261;51.580;4.578;2023-08-30T07:04:47;100632.06;;;13.52;100.00
69153;BME280;56261;51.580;4.578;2023-08-30T07:07:13;100633.97;;;13.58;100.00
69153;BME280;56261;51.580;4.578;2023-08-30T07:09:39;100629.81;;;13.55;100.00
69153;BME280;56261;51.580;4.578;2023-08-30T07:12:05;100631.91;;;13.60;100.00
69153;BME280;56261;51.580;4.578;2023-08-30T07:14:30;100636.00;;;13.56;100.00
69153;BME280;56261;51.580;4.578;2023-08-30T07:16:56;100634.78;;;13.58;100.00
69153;BME280;56261;51.580;4.578;2023-08-30T07:19:21;100625.94;;;13.58;100.00
69153;BME280;56261;51.580;4.578;2023-08-30T07:21:47;100635.03;;;13.63;100.00
69153;BME280;56261;51.580;4.578;2023-08-30T07:24:13;100634.28;;;13.76;100.00
69153;BME280;56261;51.580;4.578;2023-08-30T07:26:38;100628.31;;;13.74;100.00
69153;BME280;56261;51.580;4.578;2023-08-30T07:29:04;100622.16;;;13.80;100.00
69153;BME280;56261;51.580;4.578;2023-08-30T07:31:31;100627.75;;;13.85;100.00
69153;BME280;56261;51.580;4.578;2023-08-30T07:33:56;100620.97;;;13.89;100.00
69153;BME280;56261;51.580;4.578;2023-08-30T07:36:23;100619.94;;;13.90;100.00
69153;BME280;56261;51.580;4.578;2023-08-30T07:38:48;100624.06;;;13.93;100.00
69153;BME280;56261;51.580;4.578;2023-08-30T07:41:14;100615.69;;;14.03;100.00
69153;BME280;56261;51.580;4.578;2023-08-30T07:43:39;100624.00;;;14.15;100.00
69153;BME280;56261;51.580;4.578;2023-08-30T07:46:05;100627.75;;;14.20;100.00
69153;BME280;56261;51.580;4.578;2023-08-30T07:48:30;100625.53;;;14.30;100.00
69153;BME280;56261;51.580;4.578;2023-08-30T07:50:55;100622.53;;;14.53;100.00
69153;BME280;56261;51.580;4.578;2023-08-30T07:53:21;100621.16;;;14.78;100.00
69153;BME280;56261;51.580;4.578;2023-08-30T07:55:50;100620.56;;;14.89;100.00
69153;BME280;56261;51.580;4.578;2023-08-30T07:58:16;100614.59;;;15.07;100.00
69153;BME280;56261;51.580;4.578;2023-08-30T08:00:41;100611.50;;;14.90;100.00
69153;BME280;56261;51.580;4.578;2023-08-30T08:03:07;100599.31;;;14.94;100.00
69153;BME280;56261;51.580;4.578;2023-08-30T08:05:32;100609.66;;;15.04;100.00
69153;BME280;56261;51.580;4.578;2023-08-30T08:08:00;100603.69;;;15.15;100.00
69153;BME280;56261;51.580;4.578;2023-08-30T08:10:26;100603.47;;;15.23;100.00
69153;BME280;56261;51.580;4.578;2023-08-30T08:12:52;100608.03;;;15.29;100.00
69153;BME280;56261;51.580;4.578;2023-08-30T08:15:17;100601.19;;;15.27;100.00
69153;BME280;56261;51.580;4.578;2023-08-30T08:17:43;100614.44;;;15.42;100.00
69153;BME280;56261;51.580;4.578;2023-08-30T08:20:09;100609.06;;;15.42;100.00
69153;BME280;56261;51.580;4.578;2023-08-30T08:22:34;100612.56;;;15.22;100.00
69153;BME280;56261;51.580;4.578;2023-08-30T08:24:59;100607.81;;;15.44;100.00
69153;BME280;56261;51.580;4.578;2023-08-30T08:27:25;100601.19;;;15.47;100.00
69153;BME280;56261;51.580;4.578;2023-08-30T08:29:51;100602.22;;;15.59;100.00
69153;BME280;56261;51.580;4.578;2023-08-30T08:32:16;100606.97;;;15.70;100.00
69153;BME280;56261;51.580;4.578;2023-08-30T08:34:41;100602.63;;;15.63;100.00
69153;BME280;56261;51.580;4.578;2023-08-30T08:37:07;100606.16;;;15.56;100.00
69153;BME280;56261;51.580;4.578;2023-08-30T08:39:32;100612.78;;;15.61;100.00
69153;BME280;56261;51.580;4.578;2023-08-30T08:41:59;100620.41;;;15.64;100.00
69153;BME280;56261;51.580;4.578;2023-08-30T08:44:26;100621.13;;;16.31;100.00
69153;BME280;56261;51.580;4.578;2023-08-30T08:46:56;100610.34;;;17.08;100.00
69153;BME280;56261;51.580;4.578;2023-08-30T08:49:23;100605.50;;;16.91;100.00
69153;BME280;56261;51.580;4.578;2023-08-30T08:51:53;100606.19;;;16.80;100.00
69153;BME280;56261;51.580;4.578;2023-08-30T08:54:18;100599.03;;;16.15;100.00
69153;BME280;56261;51.580;4.578;2023-08-30T08:56:44;100607.13;;;16.02;100.00
69153;BME280;56261;51.580;4.578;2023-08-30T08:59:10;100611.25;;;16.11;100.00
69153;BME280;56261;51.580;4.578;2023-08-30T09:01:38;100614.22;;;15.83;100.00
69153;BME280;56261;51.580;4.578;2023-08-30T09:04:09;100618.75;;;15.69;100.00
69153;BME280;56261;51.580;4.578;2023-08-30T09:06:35;100621.44;;;15.69;100.00
69153;BME280;56261;51.580;4.578;2023-08-30T09:09:03;100627.88;;;15.82;100.00
69153;BME280;56261;51.580;4.578;2023-08-30T09:11:29;100631.34;;;15.95;100.00
69153;BME280;56261;51.580;4.578;2023-08-30T09:13:54;100631.75;;;16.12;100.00
69153;BME280;56261;51.580;4.578;2023-08-30T09:16:20;100621.34;;;16.23;100.00
69153;BME280;56261;51.580;4.578;2023-08-30T09:18:57;100618.91;;;17.30;100.00
69153;BME280;56261;51.580;4.578;2023-08-30T09:21:23;100615.31;;;17.61;100.00
69153;BME280;56261;51.580;4.578;2023-08-30T09:24:14;100614.94;;;18.19;100.00
69153;BME280;56261;51.580;4.578;2023-08-30T09:26:47;100616.31;;;17.67;100.00
69153;BME280;56261;51.580;4.578;2023-08-30T09:29:12;100614.81;;;17.46;100.00
69153;BME280;56261;51.580;4.578;2023-08-30T09:31:39;100614.31;;;17.80;100.00
69153;BME280;56261;51.580;4.578;2023-08-30T09:34:06;100620.00;;;17.47;100.00
69153;BME280;56261;51.580;4.578;2023-08-30T09:36:42;100625.75;;;17.00;100.00
69153;BME280;56261;51.580;4.578;2023-08-30T09:39:12;100622.97;;;17.89;100.00
69153;BME280;56261;51.580;4.578;2023-08-30T09:41:41;100612.47;;;18.85;100.00
69153;BME280;56261;51.580;4.578;2023-08-30T09:44:14;100611.34;;;18.74;100.00
69153;BME280;56261;51.580;4.578;2023-08-30T09:46:49;100608.63;;;18.74;100.00
69153;BME280;56261;51.580;4.578;2023-08-30T09:49:20;100604.06;;;18.44;100.00
69153;BME280;56261;51.580;4.578;2023-08-30T09:51:47;100618.09;;;18.83;100.00
69153;BME280;56261;51.580;4.578;2023-08-30T09:54:17;100625.75;;;18.19;100.00
69153;BME280;56261;51.580;4.578;2023-08-30T09:56:44;100628.41;;;17.32;100.00
69153;BME280;56261;51.580;4.578;2023-08-30T09:59:14;100639.38;;;17.37;100.00
69153;BME280;56261;51.580;4.578;2023-08-30T10:01:41;100632.94;;;17.13;100.00
69153;BME280;56261;51.580;4.578;2023-08-30T10:04:08;100636.59;;;17.19;100.00
69153;BME280;56261;51.580;4.578;2023-08-30T10:06:37;100633.75;;;17.39;100.00
69153;BME280;56261;51.580;4.578;2023-08-30T10:09:03;100623.19;;;17.62;100.00
69153;BME280;56261;51.580;4.578;2023-08-30T10:11:34;100626.63;;;17.51;100.00
69153;BME280;56261;51.580;4.578;2023-08-30T10:14:02;100639.00;;;17.34;100.00
69153;BME280;56261;51.580;4.578;2023-08-30T10:16:32;100647.75;;;17.79;100.00
69153;BME280;56261;51.580;4.578;2023-08-30T10:19:28;100629.19;;;18.08;100.00
69153;BME280;56261;51.580;4.578;2023-08-30T10:24:21;100637.44;;;17.95;100.00
69153;BME280;56261;51.580;4.578;2023-08-30T10:26:48;100643.81;;;18.00;100.00
69153;BME280;56261;51.580;4.578;2023-08-30T10:29:15;100642.22;;;18.48;100.00
69153;BME280;56261;51.580;4.578;2023-08-30T10:31:42;100643.25;;;18.65;100.00
69153;BME280;56261;51.580;4.578;2023-08-30T10:34:15;100646.00;;;18.29;100.00
69153;BME280;56261;51.580;4.578;2023-08-30T10:36:42;100657.06;;;18.57;100.00
69153;BME280;56261;51.580;4.578;2023-08-30T10:39:12;100648.78;;;18.40;100.00
69153;BME280;56261;51.580;4.578;2023-08-30T10:41:54;100645.38;;;18.45;100.00
69153;BME280;56261;51.580;4.578;2023-08-30T10:44:20;100642.53;;;18.58;100.00
69153;BME280;56261;51.580;4.578;2023-08-30T10:46:54;100650.41;;;17.86;100.00
69153;BME280;56261;51.580;4.578;2023-08-30T10:49:20;100655.03;;;17.72;100.00
69153;BME280;56261;51.580;4.578;2023-08-30T10:51:45;100650.28;;;18.36;100.00
69153;BME280;56261;51.580;4.578;2023-08-30T10:54:19;100668.03;;;18.25;100.00
69153;BME280;56261;51.580;4.578;2023-08-30T10:59:20;100661.00;;;17.56;100.00
69153;BME280;56261;51.580;4.578;2023-08-30T11:01:47;100669.16;;;17.49;100.00
69153;BME280;56261;51.580;4.578;2023-08-30T11:04:15;100673.19;;;17.90;100.00
69153;BME280;56261;51.580;4.578;2023-08-30T11:06:46;100664.81;;;17.98;100.00
69153;BME280;56261;51.580;4.578;2023-08-30T11:09:14;100670.81;;;18.19;100.00
69153;BME280;56261;51.580;4.578;2023-08-30T11:11:40;100662.72;;;18.19;100.00
69153;BME280;56261;51.580;4.578;2023-08-30T11:14:07;100669.53;;;18.03;100.00
69153;BME280;56261;51.580;4.578;2023-08-30T11:16:34;100674.19;;;17.71;100.00
69153;BME280;56261;51.580;4.578;2023-08-30T11:19:03;100671.69;;;17.69;100.00
69153;BME280;56261;51.580;4.578;2023-08-30T11:21:30;100675.47;;;17.36;100.00
69153;BME280;56261;51.580;4.578;2023-08-30T11:23:56;100679.03;;;17.62;100.00
69153;BME280;56261;51.580;4.578;2023-08-30T11:26:22;100674.72;;;17.79;100.00
69153;BME280;56261;51.580;4.578;2023-08-30T11:28:47;100669.84;;;18.32;100.00
69153;BME280;56261;51.580;4.578;2023-08-30T11:31:18;100670.41;;;18.71;100.00
69153;BME280;56261;51.580;4.578;2023-08-30T11:33:55;100673.75;;;18.54;100.00
69153;BME280;56261;51.580;4.578;2023-08-30T11:36:26;100676.59;;;18.22;100.00
69153;BME280;56261;51.580;4.578;2023-08-30T11:38:53;100675.38;;;18.00;100.00
69153;BME280;56261;51.580;4.578;2023-08-30T11:41:22;100678.97;;;18.12;100.00
69153;BME280;56261;51.580;4.578;2023-08-30T11:43:48;100682.28;;;18.33;100.00
69153;BME280;56261;51.580;4.578;2023-08-30T11:46:14;100681.97;;;18.59;100.00
69153;BME280;56261;51.580;4.578;2023-08-30T11:48:40;100680.13;;;18.04;100.00
69153;BME280;56261;51.580;4.578;2023-08-30T11:51:07;100675.06;;;17.90;100.00
69153;BME280;56261;51.580;4.578;2023-08-30T11:53:34;100681.22;;;17.72;100.00
69153;BME280;56261;51.580;4.578;2023-08-30T11:55:59;100679.44;;;17.34;100.00
69153;BME280;56261;51.580;4.578;2023-08-30T11:58:25;100690.75;;;17.17;100.00
69153;BME280;56261;51.580;4.578;2023-08-30T12:00:51;100681.59;;;17.18;100.00
69153;BME280;56261;51.580;4.578;2023-08-30T12:03:19;100689.66;;;17.50;100.00
69153;BME280;56261;51.580;4.578;2023-08-30T12:05:46;100687.59;;;18.02;100.00
69153;BME280;56261;51.580;4.578;2023-08-30T12:08:38;100689.78;;;18.12;100.00
69153;BME280;56261;51.580;4.578;2023-08-30T12:11:03;100684.88;;;17.52;100.00
69153;BME280;56261;51.580;4.578;2023-08-30T12:13:31;100703.19;;;17.75;100.00
69153;BME280;56261;51.580;4.578;2023-08-30T12:15:58;100700.28;;;17.45;100.00
69153;BME280;56261;51.580;4.578;2023-08-30T12:18:25;100700.59;;;17.30;100.00
69153;BME280;56261;51.580;4.578;2023-08-30T12:20:57;100711.53;;;17.10;100.00
69153;BME280;56261;51.580;4.578;2023-08-30T12:23:24;100702.91;;;17.58;100.00
69153;BME280;56261;51.580;4.578;2023-08-30T12:26:16;100700.63;;;17.80;100.00
69153;BME280;56261;51.580;4.578;2023-08-30T12:28:42;100708.44;;;17.63;100.00
69153;BME280;56261;51.580;4.578;2023-08-30T12:31:09;100709.53;;;17.31;100.00
69153;BME280;56261;51.580;4.578;2023-08-30T12:33:36;100711.16;;;17.32;100.00
69153;BME280;56261;51.580;4.578;2023-08-30T12:36:02;100711.19;;;17.89;100.00
69153;BME280;56261;51.580;4.578;2023-08-30T12:38:29;100723.03;;;17.88;100.00
69153;BME280;56261;51.580;4.578;2023-08-30T12:40:55;100722.13;;;17.37;100.00
69153;BME280;56261;51.580;4.578;2023-08-30T12:43:22;100724.22;;;17.35;100.00
69153;BME280;56261;51.580;4.578;2023-08-30T12:45:49;100731.22;;;17.42;100.00
69153;BME280;56261;51.580;4.578;2023-08-30T12:48:16;100733.31;;;17.40;100.00
69153;BME280;56261;51.580;4.578;2023-08-30T12:50:44;100740.22;;;17.30;100.00
69153;BME280;56261;51.580;4.578;2023-08-30T12:53:09;100730.88;;;17.64;100.00
69153;BME280;56261;51.580;4.578;2023-08-30T12:55:35;100725.00;;;17.99;100.00